Portada
METAR-TAF:

METAR-TAF

Aeroports :

Aizawl, Índia

latitud: 23-50-18N, longitud: 92-37-13E, altitud: 405 m

Observació

L'informe es va fer fa 7 hores i 28 minuts, a les 10:00 UTC
Vent calma
Temperatura 30°C
Humitat 70%
Pressió 1012 hPa
Visibilitat: 7000 m
Escasses núvols a una alçada de 1800 ft
Núvols disperses a una alçada de 2500 ft

METAR: VELP 221000Z 00000KT 7000 FEW018 SCT025 30/24 Q1012 NOSIG

Hora: 22:58 (17:28 UTC)


TAF: manca

Observacions i pronòstics meteorològics de més de 4000 aeroports (METAR i TAF).

Les estacions disponibles són els punts grocs i vermells al mapa.

Posi el ratolí al punt desitjat per veure el nom de l'estació.

Feu clic per veure les observacions i els pronòstics meteorològics.

Per canviar el mapa: feu clic els botons verds amb una creu de color negre per apropar; al botó verd amb un guió per allunyar la imatge; o en les fletxes verdes per a mapes adjacents.


METAR-TAF: